createdAt,value
2018-07-06T00:00:19.861Z,67.36
2018-07-06T00:02:59.511Z,67.90
2018-07-06T00:05:38.886Z,67.87
2018-07-06T00:08:18.601Z,68.14
2018-07-06T00:10:58.329Z,68.32
2018-07-06T00:13:38.072Z,68.98
2018-07-06T00:16:17.767Z,68.22
2018-07-06T00:18:57.528Z,69.52
2018-07-06T00:21:37.326Z,69.57
2018-07-06T00:24:17.037Z,70.24
2018-07-06T00:26:56.786Z,70.56
2018-07-06T00:29:36.537Z,70.56
2018-07-06T00:32:16.754Z,70.58
2018-07-06T00:34:56.289Z,70.51
2018-07-06T00:37:35.933Z,70.63
2018-07-06T00:40:15.609Z,70.60
2018-07-06T00:42:55.406Z,71.06
2018-07-06T00:45:35.072Z,70.59
2018-07-06T00:48:14.625Z,71.42
2018-07-06T00:50:54.437Z,71.69
2018-07-06T00:53:34.019Z,71.59
2018-07-06T00:56:13.533Z,71.22
2018-07-06T00:58:53.192Z,72.04
2018-07-06T01:01:33.103Z,71.62
2018-07-06T01:04:12.798Z,71.24
2018-07-06T01:06:52.393Z,72.15
2018-07-06T01:09:31.965Z,72.04
2018-07-06T01:12:16.958Z,72.67
2018-07-06T01:14:56.453Z,72.28
2018-07-06T01:17:36.051Z,72.92
2018-07-06T01:20:15.885Z,72.43
2018-07-06T01:22:55.688Z,72.27
2018-07-06T01:25:35.494Z,72.54
2018-07-06T01:28:15.140Z,72.37
2018-07-06T01:30:54.821Z,72.72
2018-07-06T01:33:34.440Z,73.09
2018-07-06T01:36:14.132Z,72.86
2018-07-06T01:38:53.874Z,73.67
2018-07-06T01:41:33.645Z,73.04
2018-07-06T01:44:13.382Z,72.87
2018-07-06T01:46:53.286Z,73.13
2018-07-06T01:49:32.952Z,72.86
2018-07-06T01:52:12.622Z,73.48
2018-07-06T01:54:52.410Z,73.52
2018-07-06T01:57:31.964Z,73.24
2018-07-06T02:00:11.606Z,73.17
2018-07-06T02:02:51.369Z,73.08
2018-07-06T02:05:31.042Z,73.97
2018-07-06T02:08:10.800Z,73.61
2018-07-06T02:10:50.524Z,73.70
2018-07-06T02:13:30.155Z,73.40
2018-07-06T02:16:09.896Z,73.83
2018-07-06T02:18:49.598Z,74.04
2018-07-06T02:21:29.278Z,74.13
2018-07-06T02:24:09.010Z,74.37
2018-07-06T02:26:48.770Z,73.98
2018-07-06T02:29:28.520Z,74.50
2018-07-06T02:32:08.265Z,74.23
2018-07-06T02:34:47.868Z,74.90
2018-07-06T02:37:27.546Z,74.05
2018-07-06T02:40:07.204Z,74.76
2018-07-06T02:42:47.038Z,74.33
2018-07-06T02:45:26.537Z,74.91
2018-07-06T02:48:06.330Z,74.47
2018-07-06T02:50:46.157Z,74.49
2018-07-06T02:53:25.798Z,74.85
2018-07-06T02:56:05.481Z,75.23
2018-07-06T02:58:45.311Z,75.72
2018-07-06T03:01:24.871Z,75.37
2018-07-06T03:04:04.517Z,75.46
2018-07-06T03:06:44.616Z,75.31
2018-07-06T03:09:24.318Z,75.87
2018-07-06T03:12:04.103Z,75.55
2018-07-06T03:14:43.701Z,75.59
2018-07-06T03:17:23.406Z,75.80
2018-07-06T03:20:03.117Z,76.18
2018-07-06T03:22:42.926Z,76.54
2018-07-06T03:25:22.788Z,77.02
2018-07-06T03:28:02.709Z,76.63
2018-07-06T03:30:42.282Z,77.03
2018-07-06T03:33:22.081Z,76.72
2018-07-06T03:36:01.753Z,76.92
2018-07-06T03:38:41.629Z,76.97
2018-07-06T03:41:21.432Z,76.46
2018-07-06T03:44:01.240Z,76.07
2018-07-06T03:46:41.004Z,76.12
2018-07-06T03:49:20.803Z,76.79
2018-07-06T03:52:00.648Z,76.29
2018-07-06T03:54:40.460Z,76.24
2018-07-06T03:57:20.235Z,76.73
2018-07-06T03:59:59.910Z,76.69
2018-07-06T04:02:39.617Z,76.12
2018-07-06T04:05:19.225Z,75.72
2018-07-06T04:07:58.925Z,75.78
2018-07-06T04:10:38.576Z,75.86
2018-07-06T04:13:18.380Z,76.07
2018-07-06T04:15:58.270Z,76.27
2018-07-06T04:18:38.064Z,76.07
2018-07-06T04:21:17.817Z,75.64
2018-07-06T04:23:57.602Z,75.30
2018-07-06T04:26:37.292Z,75.85
2018-07-06T04:29:17.043Z,75.50
2018-07-06T04:31:56.907Z,75.41
2018-07-06T04:34:36.740Z,74.94
2018-07-06T04:37:16.391Z,75.29
2018-07-06T04:39:56.192Z,74.84
2018-07-06T04:42:35.817Z,74.94
2018-07-06T04:45:15.509Z,75.53
2018-07-06T04:47:55.335Z,75.23
2018-07-06T04:50:35.132Z,75.70
2018-07-06T04:53:14.838Z,75.23
2018-07-06T04:55:54.612Z,75.31
2018-07-06T04:58:34.330Z,75.02
2018-07-06T05:01:13.913Z,75.39
2018-07-06T05:03:53.637Z,75.39
2018-07-06T05:06:33.476Z,74.69
2018-07-06T05:09:13.267Z,75.33
2018-07-06T05:11:53.320Z,75.52
2018-07-06T05:14:33.132Z,75.39
2018-07-06T05:17:12.904Z,75.70
2018-07-06T05:19:52.669Z,75.37
2018-07-06T05:22:32.456Z,75.24
2018-07-06T05:25:12.096Z,75.61
2018-07-06T05:27:51.852Z,75.71
2018-07-06T05:30:31.544Z,75.82
2018-07-06T05:33:11.309Z,76.14
2018-07-06T05:35:51.062Z,74.97
2018-07-06T05:38:30.866Z,75.48
2018-07-06T05:41:10.623Z,75.37
2018-07-06T05:43:50.406Z,75.30
2018-07-06T05:46:30.048Z,74.67
2018-07-06T05:49:09.814Z,75.14
2018-07-06T05:51:49.564Z,75.38
2018-07-06T05:54:29.411Z,74.59
2018-07-06T05:57:09.103Z,74.44
2018-07-06T05:59:48.934Z,75.03
2018-07-06T06:02:28.737Z,74.64
2018-07-06T06:05:08.499Z,74.58
2018-07-06T06:07:35.690Z,74.30
2018-07-06T06:10:04.079Z,73.81
2018-07-06T06:12:32.417Z,73.65
2018-07-06T06:15:00.776Z,74.26
2018-07-06T06:17:29.136Z,73.86
2018-07-06T06:19:57.499Z,73.92
2018-07-06T06:22:25.956Z,73.58
2018-07-06T06:24:54.292Z,73.21
2018-07-06T06:27:22.627Z,73.28
2018-07-06T06:29:51.342Z,73.04
2018-07-06T06:32:20.098Z,73.43
2018-07-06T06:34:48.467Z,73.40
2018-07-06T06:37:16.826Z,73.16
2018-07-06T06:39:45.177Z,73.81
2018-07-06T06:42:13.527Z,73.68
2018-07-06T06:44:41.899Z,73.41
2018-07-06T06:47:10.256Z,72.60
2018-07-06T06:49:38.672Z,72.75
2018-07-06T06:52:07.023Z,73.13
2018-07-06T06:54:35.411Z,72.47
2018-07-06T06:57:03.781Z,72.10
2018-07-06T06:59:32.367Z,71.43
2018-07-06T07:02:00.750Z,71.17
2018-07-06T07:04:29.157Z,70.79
2018-07-06T07:06:57.576Z,70.64
2018-07-06T07:09:25.970Z,71.19
2018-07-06T07:11:54.416Z,70.94
2018-07-06T07:14:22.835Z,70.56
2018-07-06T07:16:51.549Z,71.21
2018-07-06T07:19:19.912Z,71.12
2018-07-06T07:21:48.378Z,70.42
2018-07-06T07:24:16.753Z,70.23
2018-07-06T07:26:45.188Z,69.85
2018-07-06T07:29:13.738Z,69.69
2018-07-06T07:31:42.184Z,69.18
2018-07-06T07:34:10.530Z,69.67
2018-07-06T07:36:38.927Z,69.60
2018-07-06T07:39:07.309Z,68.93
2018-07-06T07:41:35.693Z,68.91
2018-07-06T07:44:04.046Z,68.48
2018-07-06T07:46:32.504Z,68.46
2018-07-06T07:49:00.823Z,68.43
2018-07-06T07:52:06.976Z,68.80
2018-07-06T07:54:39.253Z,67.39
2018-07-06T07:57:07.884Z,67.46
2018-07-06T07:59:36.288Z,67.50
2018-07-06T08:02:04.796Z,67.19
2018-07-06T08:04:33.523Z,66.65
2018-07-06T08:07:02.340Z,66.45
2018-07-06T08:09:30.755Z,65.35
2018-07-06T08:12:00.478Z,65.17
2018-07-06T08:14:28.941Z,65.08
2018-07-06T08:16:57.383Z,64.98
2018-07-06T08:19:25.795Z,65.02
2018-07-06T08:21:54.207Z,64.38
2018-07-06T08:24:22.588Z,64.17
2018-07-06T08:26:50.966Z,63.92
2018-07-06T08:29:19.372Z,63.86
2018-07-06T08:31:47.924Z,63.56
2018-07-06T08:34:27.770Z,62.85
2018-07-06T08:38:07.800Z,62.66
2018-07-06T08:40:36.280Z,61.89
2018-07-06T08:43:05.744Z,62.12
2018-07-06T08:45:34.777Z,60.94
2018-07-06T08:48:03.201Z,59.09
2018-07-06T08:50:31.569Z,60.39
2018-07-06T08:53:00.128Z,59.83
2018-07-06T08:55:28.985Z,60.21
2018-07-06T08:57:58.373Z,60.64
2018-07-06T09:00:26.765Z,59.71
2018-07-06T09:02:55.124Z,59.59
2018-07-06T09:05:23.512Z,59.87
2018-07-06T09:07:51.883Z,59.26
2018-07-06T09:10:20.259Z,59.07
2018-07-06T09:15:02.211Z,57.98
2018-07-06T09:17:30.569Z,57.61
2018-07-06T09:20:00.345Z,58.22
2018-07-06T09:22:28.679Z,57.46
2018-07-06T09:24:58.475Z,57.58
2018-07-06T09:27:26.979Z,57.28
2018-07-06T09:29:55.437Z,56.10
2018-07-06T09:32:23.916Z,55.66
2018-07-06T09:34:52.329Z,55.35
2018-07-06T09:37:20.688Z,55.75
2018-07-06T09:39:49.825Z,56.54
2018-07-06T09:42:18.558Z,56.65
2018-07-06T09:44:46.913Z,57.04
2018-07-06T09:47:15.315Z,56.78
2018-07-06T09:49:43.767Z,55.32
2018-07-06T09:52:12.179Z,56.43
2018-07-06T09:54:40.619Z,56.02
2018-07-06T09:57:08.968Z,55.96
2018-07-06T09:59:37.348Z,55.87
2018-07-06T10:02:05.730Z,54.93
2018-07-06T10:04:34.105Z,55.96
2018-07-06T10:07:02.438Z,56.41
2018-07-06T10:09:30.808Z,55.64
2018-07-06T10:11:59.189Z,55.57
2018-07-06T10:14:27.571Z,54.93
2018-07-06T10:16:55.951Z,53.97
2018-07-06T10:19:24.346Z,54.08
2018-07-06T10:21:52.744Z,53.85
2018-07-06T10:24:21.115Z,52.59
2018-07-06T10:26:49.489Z,52.84
2018-07-06T10:29:25.493Z,53.23
2018-07-06T10:32:16.269Z,52.39
2018-07-06T10:34:44.614Z,52.97
2018-07-06T10:37:12.960Z,53.41
2018-07-06T10:39:41.448Z,52.82
2018-07-06T10:42:10.075Z,51.62
2018-07-06T10:44:38.446Z,52.08
2018-07-06T10:47:06.784Z,53.47
2018-07-06T10:49:35.381Z,53.19
2018-07-06T10:52:03.970Z,50.99
2018-07-06T10:54:32.503Z,51.73
2018-07-06T10:57:00.832Z,50.74
2018-07-06T10:59:29.720Z,51.13
2018-07-06T11:01:58.085Z,50.88
2018-07-06T11:04:26.487Z,51.06
2018-07-06T11:06:55.301Z,49.14
2018-07-06T11:09:23.849Z,50.06
2018-07-06T11:11:52.324Z,49.67
2018-07-06T11:14:20.852Z,48.42
2018-07-06T11:16:49.239Z,49.27
2018-07-06T11:19:17.652Z,48.25
2018-07-06T11:21:45.996Z,48.78
2018-07-06T11:24:14.363Z,48.80
2018-07-06T11:26:42.752Z,47.93
2018-07-06T11:29:11.252Z,46.70
2018-07-06T11:31:39.567Z,46.44
2018-07-06T11:34:08.768Z,47.07
2018-07-06T11:36:37.366Z,47.27
2018-07-06T11:39:06.786Z,47.53
2018-07-06T11:41:35.753Z,46.55
2018-07-06T11:44:04.113Z,47.42
2018-07-06T11:46:32.439Z,46.85
2018-07-06T11:49:00.900Z,45.99
2018-07-06T11:51:29.441Z,44.73
2018-07-06T11:53:57.939Z,44.19
2018-07-06T11:56:26.327Z,44.54
2018-07-06T11:58:54.718Z,45.00
2018-07-06T12:01:23.041Z,44.48
2018-07-06T12:03:51.518Z,45.00
2018-07-06T12:06:19.882Z,44.77
2018-07-06T12:08:48.271Z,44.92
2018-07-06T12:11:16.655Z,44.22
2018-07-06T12:13:45.096Z,44.41
2018-07-06T12:16:13.444Z,44.12
2018-07-06T12:18:41.781Z,43.49
2018-07-06T12:21:10.222Z,42.07
2018-07-06T12:23:38.553Z,42.93
2018-07-06T12:26:06.895Z,41.69
2018-07-06T12:28:35.252Z,41.35
2018-07-06T12:31:03.596Z,41.93
2018-07-06T12:33:31.945Z,42.94
2018-07-06T12:36:00.471Z,41.68
2018-07-06T12:38:28.821Z,42.08
2018-07-06T12:40:57.193Z,42.37
2018-07-06T12:43:25.585Z,42.54
2018-07-06T12:45:53.979Z,42.61
2018-07-06T12:48:22.345Z,42.27
2018-07-06T12:50:50.687Z,41.28
2018-07-06T12:53:19.060Z,41.34
2018-07-06T12:55:47.385Z,40.84
2018-07-06T12:58:15.775Z,40.80
2018-07-06T13:00:44.130Z,40.26
2018-07-06T13:03:12.487Z,40.94
2018-07-06T13:05:40.836Z,40.25
2018-07-06T13:08:09.235Z,41.36
2018-07-06T13:10:37.768Z,41.21
2018-07-06T13:13:06.180Z,41.87
2018-07-06T13:15:34.588Z,40.99
2018-07-06T13:18:02.946Z,41.10
2018-07-06T13:20:31.303Z,42.01
2018-07-06T13:22:59.625Z,40.70
2018-07-06T13:25:27.971Z,40.87
2018-07-06T13:27:56.372Z,41.20
2018-07-06T13:30:26.317Z,40.51
2018-07-06T13:32:54.765Z,41.75
2018-07-06T13:35:24.201Z,41.48
2018-07-06T13:37:52.576Z,41.70
2018-07-06T13:40:20.912Z,41.85
2018-07-06T13:42:49.250Z,41.93
2018-07-06T13:45:17.587Z,40.74
2018-07-06T13:47:45.987Z,40.89
2018-07-06T13:50:14.354Z,40.74
2018-07-06T13:52:42.722Z,41.08
2018-07-06T13:55:11.061Z,41.63
2018-07-06T13:57:39.548Z,40.33
2018-07-06T14:00:07.932Z,40.71
2018-07-06T14:02:36.329Z,40.23
2018-07-06T14:05:04.691Z,39.96
2018-07-06T14:07:33.047Z,40.67
2018-07-06T14:10:01.388Z,40.63
2018-07-06T14:12:29.754Z,40.67
2018-07-06T14:14:58.080Z,40.84
2018-07-06T14:17:26.497Z,40.13
2018-07-06T14:19:54.854Z,40.57
2018-07-06T14:22:23.317Z,40.05
2018-07-06T14:24:51.637Z,40.09
2018-07-06T14:27:20.020Z,40.21
2018-07-06T14:29:48.506Z,40.17
2018-07-06T14:32:16.896Z,40.74
2018-07-06T14:34:45.252Z,40.54
2018-07-06T14:37:13.599Z,39.90
2018-07-06T14:39:41.984Z,39.90
2018-07-06T14:42:10.358Z,39.56
2018-07-06T14:44:38.846Z,39.37
2018-07-06T14:47:07.201Z,38.49
2018-07-06T14:49:35.790Z,38.87
2018-07-06T14:52:04.129Z,39.37
2018-07-06T14:54:32.481Z,39.19
2018-07-06T14:57:00.850Z,39.71
2018-07-06T14:59:29.204Z,40.73
2018-07-06T15:01:57.615Z,40.66
2018-07-06T15:04:25.949Z,41.40
2018-07-06T15:06:54.397Z,40.60
2018-07-06T15:09:22.769Z,41.14
2018-07-06T15:11:51.240Z,40.30
2018-07-06T15:14:19.643Z,40.56
2018-07-06T15:16:48.016Z,40.61
2018-07-06T15:19:16.367Z,40.06
2018-07-06T15:21:44.774Z,39.86
2018-07-06T15:24:13.147Z,40.40
2018-07-06T15:26:41.496Z,40.49
2018-07-06T15:29:09.897Z,41.71
2018-07-06T15:31:38.280Z,41.65
2018-07-06T15:34:06.642Z,41.10
2018-07-06T15:36:35.007Z,41.15
2018-07-06T15:39:04.340Z,40.81
2018-07-06T15:41:32.709Z,40.84
2018-07-06T15:44:01.025Z,41.17
2018-07-06T15:46:29.444Z,41.19
2018-07-06T15:48:57.849Z,41.00
2018-07-06T15:51:26.284Z,41.71
2018-07-06T15:53:54.656Z,41.12
2018-07-06T15:56:23.036Z,41.42
2018-07-06T15:58:51.386Z,40.60
2018-07-06T16:01:19.764Z,40.68
2018-07-06T16:03:48.137Z,40.94
2018-07-06T16:06:16.475Z,40.78
2018-07-06T16:08:44.828Z,40.73
2018-07-06T16:11:13.245Z,40.92
2018-07-06T16:13:41.573Z,41.17
2018-07-06T16:16:10.012Z,41.39
2018-07-06T16:18:38.299Z,40.81
2018-07-06T16:21:06.799Z,40.87
2018-07-06T16:23:35.123Z,41.01
2018-07-06T16:26:03.468Z,42.05
2018-07-06T16:28:31.820Z,41.48
2018-07-06T16:31:00.248Z,42.40
2018-07-06T16:33:28.619Z,41.53
2018-07-06T16:35:56.947Z,41.91
2018-07-06T16:38:25.287Z,41.52
2018-07-06T16:40:53.760Z,41.09
2018-07-06T16:43:22.204Z,41.85
2018-07-06T16:45:50.564Z,41.78
2018-07-06T16:48:18.901Z,41.83
2018-07-06T16:50:47.229Z,40.89
2018-07-06T16:53:15.565Z,40.86
2018-07-06T16:55:43.931Z,41.61
2018-07-06T16:58:12.265Z,40.48
2018-07-06T17:00:40.616Z,40.46
2018-07-06T17:03:08.981Z,41.16
2018-07-06T17:05:37.317Z,41.22
2018-07-06T17:08:05.746Z,40.23
2018-07-06T17:10:34.104Z,40.62
2018-07-06T17:13:02.465Z,40.15
2018-07-06T17:15:30.883Z,40.72
2018-07-06T17:17:59.286Z,40.40
2018-07-06T17:20:27.621Z,39.80
2018-07-06T17:22:55.991Z,39.88
2018-07-06T17:25:24.413Z,39.76
2018-07-06T17:27:52.804Z,39.63
2018-07-06T17:30:21.180Z,39.81
2018-07-06T17:32:49.545Z,40.27
2018-07-06T17:35:17.894Z,40.07
2018-07-06T17:37:46.678Z,39.49
2018-07-06T17:40:15.046Z,40.16
2018-07-06T17:42:43.390Z,40.28
2018-07-06T17:45:11.767Z,39.89
2018-07-06T17:47:40.307Z,40.04
2018-07-06T17:50:08.635Z,40.84
2018-07-06T17:52:37.252Z,40.58
2018-07-06T17:55:05.651Z,40.83
2018-07-06T17:57:33.975Z,41.41
2018-07-06T18:00:02.343Z,41.95
2018-07-06T18:02:30.694Z,41.91
2018-07-06T18:04:59.016Z,42.02
2018-07-06T18:07:27.385Z,41.27
2018-07-06T18:09:55.665Z,41.76
2018-07-06T18:12:24.051Z,42.13
2018-07-06T18:14:52.445Z,41.31
2018-07-06T18:17:20.863Z,42.20
2018-07-06T18:19:49.209Z,41.77
2018-07-06T18:22:17.622Z,41.76
2018-07-06T18:24:46.006Z,42.15
2018-07-06T18:27:14.351Z,42.13
2018-07-06T18:29:42.716Z,42.36
2018-07-06T18:32:11.250Z,43.22
2018-07-06T18:34:39.600Z,42.70
2018-07-06T18:37:07.985Z,43.19
2018-07-06T18:39:36.342Z,43.00
2018-07-06T18:42:04.685Z,43.11
2018-07-06T18:44:33.044Z,43.06
2018-07-06T18:47:01.420Z,43.18
2018-07-06T18:49:29.796Z,43.85
2018-07-06T18:51:58.184Z,44.00
2018-07-06T18:54:26.619Z,43.96
2018-07-06T18:56:54.995Z,44.52
2018-07-06T18:59:23.324Z,44.37
2018-07-06T19:01:51.739Z,44.61
2018-07-06T19:04:20.132Z,44.00
2018-07-06T19:06:48.497Z,44.26
2018-07-06T19:09:16.861Z,44.69
2018-07-06T19:11:45.335Z,43.98
2018-07-06T19:16:31.360Z,44.56
2018-07-06T19:18:59.781Z,44.99
2018-07-06T19:21:28.135Z,44.33
2018-07-06T19:23:56.512Z,44.36
2018-07-06T19:26:24.907Z,44.59
2018-07-06T19:28:53.444Z,44.96
2018-07-06T19:31:21.797Z,45.46
2018-07-06T19:33:50.141Z,45.08
2018-07-06T19:36:18.506Z,45.27
2018-07-06T19:38:47.068Z,46.12
2018-07-06T19:41:15.467Z,46.16
2018-07-06T19:43:43.820Z,45.98
2018-07-06T19:46:12.476Z,46.68
2018-07-06T19:48:40.870Z,46.81
2018-07-06T19:51:09.218Z,46.13
2018-07-06T19:53:37.729Z,46.74
2018-07-06T19:56:06.078Z,46.45
2018-07-06T19:58:34.526Z,46.55
2018-07-06T20:01:02.986Z,47.21
2018-07-06T20:03:31.387Z,47.14
2018-07-06T20:05:59.740Z,47.33
2018-07-06T20:08:28.097Z,47.13
2018-07-06T20:10:56.522Z,47.58
2018-07-06T20:13:25.061Z,48.30
2018-07-06T20:15:53.394Z,47.39
2018-07-06T20:18:21.775Z,47.74
2018-07-06T20:20:50.122Z,47.37
2018-07-06T20:23:18.501Z,46.91
2018-07-06T20:25:46.842Z,47.31
2018-07-06T20:28:15.201Z,46.56
2018-07-06T20:30:43.604Z,46.73
2018-07-06T20:33:12.039Z,46.62
2018-07-06T20:35:40.396Z,45.66
2018-07-06T20:38:08.751Z,46.25
2018-07-06T20:40:37.164Z,45.45
2018-07-06T20:43:05.565Z,46.22
2018-07-06T20:45:33.938Z,46.15
2018-07-06T20:48:02.287Z,45.92
2018-07-06T20:50:30.656Z,46.63
2018-07-06T20:52:58.992Z,46.50
2018-07-06T20:55:27.522Z,47.38
2018-07-06T20:57:56.016Z,46.83
2018-07-06T21:00:24.360Z,47.61
2018-07-06T21:02:52.712Z,47.35
2018-07-06T21:05:21.051Z,47.81
2018-07-06T21:07:49.447Z,47.99
2018-07-06T21:10:17.816Z,48.05
2018-07-06T21:12:46.155Z,47.90
2018-07-06T21:15:14.529Z,47.48
2018-07-06T21:17:42.871Z,47.32
2018-07-06T21:20:11.225Z,47.37
2018-07-06T21:22:39.988Z,47.58
2018-07-06T21:25:08.380Z,48.03
2018-07-06T21:27:36.912Z,47.55
2018-07-06T21:30:05.304Z,47.93
2018-07-06T21:32:33.759Z,47.31
2018-07-06T21:35:02.105Z,46.70
2018-07-06T21:37:30.416Z,46.42
2018-07-06T21:39:58.740Z,46.48
2018-07-06T21:42:27.376Z,45.68
2018-07-06T21:44:55.814Z,45.63
2018-07-06T21:47:24.172Z,45.52
2018-07-06T21:49:52.609Z,44.80
2018-07-06T21:52:20.988Z,44.52
2018-07-06T21:54:49.338Z,44.73
2018-07-06T21:57:17.683Z,43.97
2018-07-06T21:59:46.011Z,43.83
2018-07-06T22:02:15.582Z,44.06
2018-07-06T22:04:45.574Z,44.03
2018-07-06T22:07:14.876Z,43.58
2018-07-06T22:09:43.408Z,43.89
2018-07-06T22:12:12.136Z,43.37
2018-07-06T22:14:40.894Z,44.42
2018-07-06T22:17:09.521Z,44.15
2018-07-06T22:19:37.951Z,43.40
2018-07-06T22:22:06.701Z,43.16
2018-07-06T22:24:35.147Z,42.98
2018-07-06T22:27:03.489Z,43.62
2018-07-06T22:29:31.860Z,44.01
2018-07-06T22:32:00.236Z,43.96
2018-07-06T22:34:28.724Z,44.15
2018-07-06T22:36:57.136Z,43.87
2018-07-06T22:39:25.469Z,44.07
2018-07-06T22:41:53.843Z,42.85
2018-07-06T22:44:22.196Z,42.95
2018-07-06T22:46:50.526Z,43.72
2018-07-06T22:49:18.849Z,43.68
2018-07-06T22:51:47.193Z,43.12
2018-07-06T22:54:15.654Z,43.49
2018-07-06T22:56:43.985Z,43.57
2018-07-06T22:59:12.332Z,43.79
2018-07-06T23:01:40.802Z,43.86
2018-07-06T23:04:09.146Z,44.11
2018-07-06T23:06:37.593Z,44.25
2018-07-06T23:09:06.979Z,44.69
2018-07-06T23:11:35.331Z,45.38
2018-07-06T23:14:03.741Z,45.39
2018-07-06T23:16:32.104Z,46.29
2018-07-06T23:19:00.472Z,47.35
2018-07-06T23:21:28.897Z,47.79
2018-07-06T23:23:57.233Z,48.87
2018-07-06T23:26:25.572Z,48.78
2018-07-06T23:28:53.932Z,48.69
2018-07-06T23:31:22.233Z,48.61
2018-07-06T23:33:50.597Z,48.16
2018-07-06T23:36:18.974Z,48.20
2018-07-06T23:38:47.488Z,47.03
2018-07-06T23:41:15.892Z,48.13
2018-07-06T23:43:44.219Z,48.07
2018-07-06T23:46:12.612Z,47.29
2018-07-06T23:48:40.979Z,46.91
2018-07-06T23:51:09.315Z,46.28
2018-07-06T23:53:37.644Z,46.61
2018-07-06T23:56:06.048Z,46.52
2018-07-06T23:58:34.491Z,46.99
